createdAt,value
2023-01-20T00:01:44.053Z,102887.71
2023-01-20T00:03:54.715Z,102888.08
2023-01-20T00:06:04.708Z,102889.83
2023-01-20T00:08:14.865Z,102886.85
2023-01-20T00:10:24.835Z,102889.41
2023-01-20T00:12:36.070Z,102887.71
2023-01-20T00:14:46.625Z,102883.77
2023-01-20T00:16:57.872Z,102876.65
2023-01-20T00:19:07.875Z,102879.11
2023-01-20T00:21:18.617Z,102878.01
2023-01-20T00:23:28.635Z,102880.44
2023-01-20T00:25:39.455Z,102882.21
2023-01-20T00:27:49.504Z,102883.10
2023-01-20T00:29:59.525Z,102880.98
2023-01-20T00:32:09.652Z,102886.80
2023-01-20T00:34:19.562Z,102888.34
2023-01-20T00:36:31.584Z,102892.01
2023-01-20T00:38:41.656Z,102890.37
2023-01-20T00:40:57.674Z,102896.70
2023-01-20T00:43:07.604Z,102897.55
2023-01-20T00:45:17.707Z,102898.55
2023-01-20T00:47:27.798Z,102894.82
2023-01-20T00:49:37.465Z,102898.48
2023-01-20T00:51:47.683Z,102899.51
2023-01-20T00:53:57.791Z,102898.56
2023-01-20T00:56:08.428Z,102900.30
2023-01-20T00:58:18.485Z,102897.45
2023-01-20T01:00:28.859Z,102898.11
2023-01-20T01:02:44.478Z,102899.30
2023-01-20T01:04:55.378Z,102898.92
2023-01-20T01:07:05.251Z,102891.10
2023-01-20T01:09:15.559Z,102895.42
2023-01-20T01:11:26.305Z,102896.25
2023-01-20T01:13:37.666Z,102896.00
2023-01-20T01:15:53.611Z,102898.94
2023-01-20T01:18:04.366Z,102900.67
2023-01-20T01:20:16.141Z,102902.22
2023-01-20T01:22:26.516Z,102904.63
2023-01-20T01:24:36.750Z,102906.17
2023-01-20T01:26:47.088Z,102910.89
2023-01-20T01:28:57.126Z,102910.32
2023-01-20T01:31:08.114Z,102913.94
2023-01-20T01:33:18.100Z,102912.30
2023-01-20T01:35:28.141Z,102911.29
2023-01-20T01:37:38.275Z,102911.55
2023-01-20T01:39:47.966Z,102912.38
2023-01-20T01:41:57.870Z,102913.38
2023-01-20T01:44:11.473Z,102911.33
2023-01-20T01:46:22.056Z,102914.27
2023-01-20T01:48:36.095Z,102916.30
2023-01-20T01:50:49.597Z,102917.64
2023-01-20T01:53:00.314Z,102915.05
2023-01-20T01:55:11.705Z,102913.36
2023-01-20T01:57:23.080Z,102912.38
2023-01-20T01:59:33.521Z,102910.51
2023-01-20T02:01:47.007Z,102908.63
2023-01-20T02:04:01.097Z,102910.12
2023-01-20T02:06:12.214Z,102911.71
2023-01-20T02:08:22.665Z,102913.69
2023-01-20T02:10:33.195Z,102913.20
2023-01-20T02:12:45.536Z,102914.67
2023-01-20T02:14:58.274Z,102920.00
2023-01-20T02:17:16.578Z,102923.41
2023-01-20T02:20:05.121Z,102921.36
2023-01-20T02:22:27.225Z,102924.95
2023-01-20T02:25:16.841Z,102925.89
2023-01-20T02:27:43.625Z,102929.11
2023-01-20T02:30:26.368Z,102933.93
2023-01-20T02:32:45.713Z,102934.49
2023-01-20T02:35:00.365Z,102932.77
2023-01-20T02:37:16.034Z,102927.87
2023-01-20T02:39:30.382Z,102931.27
2023-01-20T02:41:48.308Z,102929.37
2023-01-20T02:44:04.507Z,102932.23
2023-01-20T02:46:18.088Z,102933.67
2023-01-20T02:48:34.250Z,102935.12
2023-01-20T02:50:47.178Z,102933.37
2023-01-20T02:53:00.669Z,102935.34
2023-01-20T02:55:16.343Z,102940.82
2023-01-20T02:57:31.215Z,102945.94
2023-01-20T02:59:45.159Z,102948.42
2023-01-20T03:02:02.988Z,102946.52
2023-01-20T03:04:16.197Z,102947.41
2023-01-20T03:06:29.705Z,102942.87
2023-01-20T03:08:42.740Z,102943.05
2023-01-20T03:10:56.058Z,102943.96
2023-01-20T03:13:14.105Z,102945.73
2023-01-20T03:15:29.996Z,102951.73
2023-01-20T03:17:40.376Z,102955.98
2023-01-20T03:19:50.880Z,102959.52
2023-01-20T03:22:00.976Z,102958.83
2023-01-20T03:24:12.425Z,102963.25
2023-01-20T03:26:24.154Z,102965.02
2023-01-20T03:28:34.246Z,102966.62
2023-01-20T03:30:44.189Z,102967.52
2023-01-20T03:32:55.411Z,102968.06
2023-01-20T03:35:06.247Z,102967.19
2023-01-20T03:37:17.055Z,102968.77
2023-01-20T03:39:28.050Z,102968.46
2023-01-20T03:41:45.319Z,102973.58
2023-01-20T03:44:04.954Z,102973.58
2023-01-20T03:46:22.266Z,102973.06
2023-01-20T03:48:40.293Z,102975.70
2023-01-20T03:50:56.867Z,102976.96
2023-01-20T03:53:16.995Z,102975.75
2023-01-20T03:55:32.176Z,102977.14
2023-01-20T03:57:47.285Z,102974.17
2023-01-20T03:59:59.178Z,102977.89
2023-01-20T04:02:10.763Z,102976.48
2023-01-20T04:04:22.752Z,102974.91
2023-01-20T04:06:35.446Z,102974.92
2023-01-20T04:08:50.339Z,102972.84
2023-01-20T04:11:03.256Z,102970.91
2023-01-20T04:13:13.386Z,102972.84
2023-01-20T04:15:25.760Z,102972.69
2023-01-20T04:17:35.769Z,102975.34
2023-01-20T04:19:45.759Z,102979.41
2023-01-20T04:22:02.643Z,102981.15
2023-01-20T04:24:19.507Z,102979.05
2023-01-20T04:26:29.610Z,102978.19
2023-01-20T04:28:39.416Z,102980.48
2023-01-20T04:30:49.961Z,102981.55
2023-01-20T04:32:59.716Z,102982.59
2023-01-20T04:35:11.803Z,102983.84
2023-01-20T04:37:22.295Z,102982.63
2023-01-20T04:39:32.546Z,102985.28
2023-01-20T04:41:43.302Z,102987.38
2023-01-20T04:43:53.246Z,102988.44
2023-01-20T04:46:04.596Z,102986.87
2023-01-20T04:48:15.085Z,102991.63
2023-01-20T04:50:24.979Z,102997.44
2023-01-20T04:52:35.329Z,103004.27
2023-01-20T04:54:45.591Z,103009.56
2023-01-20T04:56:55.695Z,103011.50
2023-01-20T04:59:05.684Z,103013.98
2023-01-20T05:01:16.051Z,103019.25
2023-01-20T05:03:26.046Z,103024.35
2023-01-20T05:05:35.786Z,103026.98
2023-01-20T05:07:45.733Z,103024.19
2023-01-20T05:09:55.756Z,103030.67
2023-01-20T05:12:06.040Z,103030.33
2023-01-20T05:14:16.813Z,103034.73
2023-01-20T05:16:32.440Z,103036.50
2023-01-20T05:18:42.400Z,103039.84
2023-01-20T05:20:52.855Z,103044.76
2023-01-20T05:23:02.603Z,103046.35
2023-01-20T05:25:13.832Z,103048.27
2023-01-20T05:27:24.025Z,103050.73
2023-01-20T05:29:34.800Z,103051.44
2023-01-20T05:31:44.810Z,103051.08
2023-01-20T05:33:54.857Z,103053.17
2023-01-20T05:36:09.194Z,103056.52
2023-01-20T05:38:19.225Z,103053.89
2023-01-20T05:40:29.238Z,103059.34
2023-01-20T05:42:39.666Z,103056.00
2023-01-20T05:44:49.976Z,103059.34
2023-01-20T05:46:59.914Z,103060.91
2023-01-20T05:49:12.302Z,103061.44
2023-01-20T05:51:22.318Z,103062.67
2023-01-20T05:53:32.718Z,103066.02
2023-01-20T05:55:43.416Z,103070.95
2023-01-20T05:57:53.601Z,103068.48
2023-01-20T06:00:03.605Z,103076.73
2023-01-20T06:02:19.170Z,103073.93
2023-01-20T06:04:29.110Z,103080.95
2023-01-20T06:06:39.723Z,103082.35
2023-01-20T06:08:50.138Z,103084.45
2023-01-20T06:10:59.856Z,103091.49
2023-01-20T06:13:10.269Z,103092.02
2023-01-20T06:15:21.068Z,103093.78
2023-01-20T06:17:31.080Z,103095.88
2023-01-20T06:19:40.948Z,103093.44
2023-01-20T06:21:50.966Z,103093.43
2023-01-20T06:24:00.789Z,103095.89
2023-01-20T06:26:14.770Z,103099.73
2023-01-20T06:28:24.636Z,103102.55
2023-01-20T06:30:34.538Z,103102.01
2023-01-20T06:32:44.247Z,103105.89
2023-01-20T06:34:53.975Z,103103.96
2023-01-20T06:37:03.775Z,103104.30
2023-01-20T06:39:13.546Z,103108.69
2023-01-20T06:41:24.156Z,103112.19
2023-01-20T06:43:35.544Z,103115.02
2023-01-20T06:45:45.742Z,103113.44
2023-01-20T06:47:55.615Z,103114.13
2023-01-20T06:50:05.679Z,103116.05
2023-01-20T06:52:15.626Z,103116.93
2023-01-20T06:54:25.687Z,103118.33
2023-01-20T06:56:35.877Z,103119.91
2023-01-20T06:58:46.585Z,103115.51
2023-01-20T07:00:57.468Z,103115.69
2023-01-20T07:03:07.573Z,103116.74
2023-01-20T07:05:17.392Z,103113.93
2023-01-20T07:07:27.506Z,103109.17
2023-01-20T07:09:38.198Z,103106.20
2023-01-20T07:11:48.806Z,103103.23
2023-01-20T07:13:58.523Z,103098.31
2023-01-20T07:16:10.978Z,103099.02
2023-01-20T07:18:22.105Z,103098.48
2023-01-20T07:20:31.906Z,103096.55
2023-01-20T07:22:42.375Z,103096.39
2023-01-20T07:24:52.117Z,103096.04
2023-01-20T07:27:02.410Z,103096.05
2023-01-20T07:29:12.275Z,103098.86
2023-01-20T07:31:23.381Z,103097.09
2023-01-20T07:33:33.087Z,103098.85
2023-01-20T07:35:43.265Z,103094.64
2023-01-20T07:37:53.075Z,103103.61
2023-01-20T07:40:03.202Z,103103.96
2023-01-20T07:42:12.751Z,103106.61
2023-01-20T07:44:23.068Z,103109.25
2023-01-20T07:46:33.713Z,103108.91
2023-01-20T07:48:43.996Z,103113.64
2023-01-20T07:50:58.294Z,103115.06
2023-01-20T07:53:09.007Z,103112.07
2023-01-20T07:55:19.347Z,103110.13
2023-01-20T07:57:30.544Z,103107.83
2023-01-20T07:59:40.396Z,103099.22
2023-01-20T08:01:50.382Z,103088.86
2023-01-20T08:04:02.075Z,103083.59
2023-01-20T08:06:14.394Z,103078.15
2023-01-20T08:08:25.038Z,103068.84
2023-01-20T08:10:35.151Z,103064.08
2023-01-20T08:12:45.185Z,103056.16
2023-01-20T08:14:55.099Z,103052.65
2023-01-20T08:17:05.181Z,103050.02
2023-01-20T08:19:15.117Z,103051.45
2023-01-20T08:21:27.180Z,103048.30
2023-01-20T08:23:38.025Z,103048.98
2023-01-20T08:25:47.856Z,103049.70
2023-01-20T08:27:58.150Z,103044.77
2023-01-20T08:30:09.211Z,103040.38
2023-01-20T08:32:19.516Z,103033.89
2023-01-20T08:34:29.860Z,103036.87
2023-01-20T08:36:42.031Z,103035.13
2023-01-20T08:38:52.579Z,103032.49
2023-01-20T08:41:02.229Z,103032.84
2023-01-20T08:43:12.368Z,103031.27
2023-01-20T08:45:22.872Z,103030.38
2023-01-20T08:47:32.765Z,103030.21
2023-01-20T08:49:42.539Z,103038.48
2023-01-20T08:51:52.626Z,103041.13
2023-01-20T08:54:03.120Z,103046.92
2023-01-20T08:56:13.979Z,103051.65
2023-01-20T08:58:25.443Z,103057.48
2023-01-20T09:00:36.675Z,103062.92
2023-01-20T09:02:47.226Z,103060.47
2023-01-20T09:04:57.667Z,103062.92
2023-01-20T09:07:08.375Z,103062.94
2023-01-20T09:09:20.087Z,103070.48
2023-01-20T09:11:30.408Z,103072.07
2023-01-20T09:13:40.599Z,103074.19
2023-01-20T09:15:55.453Z,103071.52
2023-01-20T09:18:05.587Z,103071.71
2023-01-20T09:20:17.394Z,103079.96
2023-01-20T09:22:27.275Z,103085.40
2023-01-20T09:24:37.371Z,103088.73
2023-01-20T09:26:47.485Z,103092.98
2023-01-20T09:28:57.245Z,103101.92
2023-01-20T09:31:09.060Z,103109.13
2023-01-20T09:33:19.136Z,103110.18
2023-01-20T09:35:28.844Z,103110.70
2023-01-20T09:37:55.790Z,103109.46
2023-01-20T09:40:22.850Z,103113.86
2023-01-20T09:42:59.620Z,103114.73
2023-01-20T09:45:25.574Z,103118.77
2023-01-20T09:47:40.546Z,103118.61
2023-01-20T09:50:20.712Z,103117.38
2023-01-20T09:52:52.668Z,103116.32
2023-01-20T09:55:07.720Z,103120.36
2023-01-20T09:57:22.311Z,103119.84
2023-01-20T09:59:38.817Z,103126.00
2023-01-20T10:01:50.987Z,103128.98
2023-01-20T10:04:07.287Z,103129.85
2023-01-20T10:06:27.067Z,103130.55
2023-01-20T10:08:43.175Z,103133.89
2023-01-20T10:11:02.545Z,103133.71
2023-01-20T10:13:20.215Z,103136.88
2023-01-20T10:15:32.095Z,103138.80
2023-01-20T10:17:48.477Z,103143.38
2023-01-20T10:20:04.696Z,103143.73
2023-01-20T10:22:20.087Z,103141.80
2023-01-20T10:24:34.677Z,103147.23
2023-01-20T10:26:50.965Z,103147.59
2023-01-20T10:29:04.258Z,103148.81
2023-01-20T10:31:16.885Z,103153.59
2023-01-20T10:33:32.046Z,103154.11
2023-01-20T10:35:45.316Z,103152.86
2023-01-20T10:37:56.803Z,103154.62
2023-01-20T10:40:18.470Z,103150.92
2023-01-20T10:42:29.135Z,103148.32
2023-01-20T10:44:39.701Z,103151.47
2023-01-20T10:47:00.917Z,103148.13
2023-01-20T10:49:42.485Z,103148.65
2023-01-20T10:52:06.946Z,103146.39
2023-01-20T10:54:28.805Z,103143.74
2023-01-20T10:56:53.828Z,103140.58
2023-01-20T10:59:09.370Z,103137.42
2023-01-20T11:01:20.864Z,103136.36
2023-01-20T11:03:35.076Z,103130.40
2023-01-20T11:05:45.766Z,103129.16
2023-01-20T11:07:58.271Z,103130.92
2023-01-20T11:10:19.145Z,103129.52
2023-01-20T11:12:37.398Z,103133.38
2023-01-20T11:14:48.167Z,103127.05
2023-01-20T11:17:04.879Z,103127.23
2023-01-20T11:19:15.027Z,103123.89
2023-01-20T11:21:28.163Z,103122.84
2023-01-20T11:23:44.416Z,103124.59
2023-01-20T11:26:00.645Z,103124.95
2023-01-20T11:28:20.343Z,103119.67
2023-01-20T11:30:33.219Z,103116.66
2023-01-20T11:32:45.678Z,103117.90
2023-01-20T11:34:56.418Z,103115.63
2023-01-20T11:37:25.991Z,103109.64
2023-01-20T11:39:44.331Z,103101.57
2023-01-20T11:42:16.913Z,103096.13
2023-01-20T11:44:27.440Z,103091.05
2023-01-20T11:46:38.967Z,103084.89
2023-01-20T11:48:48.669Z,103084.88
2023-01-20T11:51:03.977Z,103081.20
2023-01-20T11:53:25.286Z,103080.14
2023-01-20T11:55:44.977Z,103075.76
2023-01-20T11:57:58.473Z,103072.95
2023-01-20T12:00:30.218Z,103071.72
2023-01-20T12:02:41.944Z,103073.30
2023-01-20T12:05:13.527Z,103074.52
2023-01-20T12:07:29.905Z,103073.64
2023-01-20T12:09:43.877Z,103071.00
2023-01-20T12:11:58.536Z,103066.44
2023-01-20T12:14:23.887Z,103061.52
2023-01-20T12:16:35.138Z,103058.54
2023-01-20T12:19:01.945Z,103053.10
2023-01-20T12:21:18.823Z,103049.42
2023-01-20T12:23:46.506Z,103051.35
2023-01-20T12:25:59.816Z,103058.89
2023-01-20T12:28:16.419Z,103061.17
2023-01-20T12:30:58.097Z,103060.64
2023-01-20T12:33:13.820Z,103056.78
2023-01-20T12:35:30.931Z,103056.61
2023-01-20T12:37:50.018Z,103056.63
2023-01-20T12:40:17.621Z,103058.01
2023-01-20T12:42:55.505Z,103054.15
2023-01-20T12:45:14.167Z,103056.27
2023-01-20T12:47:41.405Z,103060.66
2023-01-20T12:50:08.055Z,103059.77
2023-01-20T12:52:44.083Z,103061.35
2023-01-20T12:55:17.449Z,103063.81
2023-01-20T12:57:43.900Z,103063.45
2023-01-20T13:00:03.593Z,103063.45
2023-01-20T13:02:39.199Z,103063.11
2023-01-20T13:05:16.738Z,103065.20
2023-01-20T13:07:51.131Z,103062.92
2023-01-20T13:10:28.186Z,103062.92
2023-01-20T13:12:48.847Z,103061.50
2023-01-20T13:15:04.527Z,103067.30
2023-01-20T13:17:21.552Z,103066.41
2023-01-20T13:19:35.375Z,103063.95
2023-01-20T13:21:46.089Z,103062.03
2023-01-20T13:24:00.937Z,103060.98
2023-01-20T13:26:11.567Z,103058.52
2023-01-20T13:28:24.074Z,103055.71
2023-01-20T13:30:52.185Z,103055.17
2023-01-20T13:33:08.890Z,103056.41
2023-01-20T13:35:46.931Z,103055.02
2023-01-20T13:37:58.198Z,103052.73
2023-01-20T13:40:23.145Z,103049.58
2023-01-20T13:42:50.645Z,103046.42
2023-01-20T13:45:18.398Z,103044.48
2023-01-20T13:47:55.192Z,103044.49
2023-01-20T13:50:26.134Z,103039.58
2023-01-20T13:53:14.663Z,103041.32
2023-01-20T13:55:51.770Z,103037.63
2023-01-20T13:58:01.998Z,103033.25
2023-01-20T14:00:23.405Z,103035.16
2023-01-20T14:02:40.131Z,103029.02
2023-01-20T14:04:52.067Z,103029.55
2023-01-20T14:07:05.136Z,103030.77
2023-01-20T14:09:23.040Z,103031.63
2023-01-20T14:11:33.575Z,103026.02
2023-01-20T14:13:43.644Z,103026.55
2023-01-20T14:15:56.396Z,103024.10
2023-01-20T14:18:04.503Z,103020.23
2023-01-20T14:20:25.173Z,103020.24
2023-01-20T14:22:35.907Z,103018.48
2023-01-20T14:24:49.659Z,103022.15
2023-01-20T14:27:17.111Z,103021.98
2023-01-20T14:29:30.191Z,103022.33
2023-01-20T14:31:45.853Z,103023.55
2023-01-20T14:34:04.141Z,103031.44
2023-01-20T14:36:19.372Z,103034.63
2023-01-20T14:38:29.227Z,103031.29
2023-01-20T14:40:40.745Z,103034.09
2023-01-20T14:42:58.786Z,103033.36
2023-01-20T14:45:23.183Z,103034.61
2023-01-20T14:47:35.385Z,103036.88
2023-01-20T14:49:48.508Z,103037.07
2023-01-20T14:51:59.291Z,103037.07
2023-01-20T14:54:43.986Z,103036.54
2023-01-20T14:56:54.807Z,103036.86
2023-01-20T14:59:05.205Z,103041.10
2023-01-20T15:01:25.683Z,103045.65
2023-01-20T15:03:36.568Z,103051.42
2023-01-20T15:05:58.642Z,103051.42
2023-01-20T15:08:26.110Z,103057.36
2023-01-20T15:10:36.556Z,103065.95
2023-01-20T15:12:56.825Z,103069.79
2023-01-20T15:15:21.216Z,103072.60
2023-01-20T15:17:31.125Z,103072.56
2023-01-20T15:19:46.507Z,103072.20
2023-01-20T15:21:58.110Z,103074.31
2023-01-20T15:24:17.510Z,103075.54
2023-01-20T15:26:31.117Z,103079.22
2023-01-20T15:28:44.364Z,103079.05
2023-01-20T15:30:54.636Z,103083.27
2023-01-20T15:33:04.646Z,103085.22
2023-01-20T15:35:20.472Z,103087.85
2023-01-20T15:37:30.476Z,103089.95
2023-01-20T15:39:40.459Z,103093.11
2023-01-20T15:41:57.755Z,103096.27
2023-01-20T15:44:07.677Z,103091.50
2023-01-20T15:46:18.611Z,103092.38
2023-01-20T15:48:28.687Z,103096.41
2023-01-20T15:50:38.486Z,103094.12
2023-01-20T15:52:48.669Z,103093.42
2023-01-20T15:54:58.566Z,103093.77
2023-01-20T15:57:14.815Z,103092.38
2023-01-20T15:59:26.405Z,103094.48
2023-01-20T16:01:36.190Z,103097.80
2023-01-20T16:03:46.196Z,103102.16
2023-01-20T16:05:58.075Z,103103.39
2023-01-20T16:08:14.376Z,103101.84
2023-01-20T16:10:24.135Z,103104.11
2023-01-20T16:12:34.299Z,103102.89
2023-01-20T16:14:44.581Z,103107.45
2023-01-20T16:16:54.398Z,103106.56
2023-01-20T16:19:05.320Z,103107.10
2023-01-20T16:21:16.836Z,103106.05
2023-01-20T16:23:26.919Z,103109.91
2023-01-20T16:25:36.839Z,103115.02
2023-01-20T16:27:46.580Z,103114.33
2023-01-20T16:29:56.947Z,103120.85
2023-01-20T16:32:07.905Z,103124.36
2023-01-20T16:34:18.049Z,103130.17
2023-01-20T16:36:28.496Z,103131.05
2023-01-20T16:38:38.735Z,103129.83
2023-01-20T16:40:53.595Z,103130.38
2023-01-20T16:43:03.736Z,103131.79
2023-01-20T16:45:29.101Z,103128.48
2023-01-20T16:47:39.260Z,103130.76
2023-01-20T16:49:50.175Z,103129.55
2023-01-20T16:52:00.859Z,103123.59
2023-01-20T16:54:11.205Z,103124.30
2023-01-20T16:56:22.339Z,103123.94
2023-01-20T16:58:32.540Z,103121.69
2023-01-20T17:00:43.132Z,103125.55
2023-01-20T17:02:55.157Z,103126.60
2023-01-20T17:05:05.228Z,103128.01
2023-01-20T17:07:15.585Z,103127.85
2023-01-20T17:09:26.348Z,103131.17
2023-01-20T17:11:38.855Z,103130.50
2023-01-20T17:13:48.716Z,103133.14
2023-01-20T17:15:59.601Z,103134.73
2023-01-20T17:18:10.915Z,103134.40
2023-01-20T17:20:21.156Z,103135.28
2023-01-20T17:22:30.809Z,103136.17
2023-01-20T17:24:40.806Z,103137.41
2023-01-20T17:26:50.816Z,103138.11
2023-01-20T17:29:02.759Z,103139.52
2023-01-20T17:31:12.528Z,103144.27
2023-01-20T17:33:22.980Z,103141.80
2023-01-20T17:35:33.466Z,103138.98
2023-01-20T17:37:43.180Z,103139.33
2023-01-20T17:39:53.265Z,103140.02
2023-01-20T17:42:03.219Z,103142.48
2023-01-20T17:44:14.387Z,103141.92
2023-01-20T17:46:25.789Z,103145.08
2023-01-20T17:48:35.719Z,103139.08
2023-01-20T17:50:46.277Z,103130.63
2023-01-20T17:52:56.636Z,103130.95
2023-01-20T17:55:06.395Z,103132.16
2023-01-20T17:57:16.607Z,103133.71
2023-01-20T17:59:27.288Z,103137.73
2023-01-20T18:01:37.121Z,103134.54
2023-01-20T18:03:47.902Z,103135.20
2023-01-20T18:05:59.058Z,103137.45
2023-01-20T18:08:09.216Z,103136.70
2023-01-20T18:10:20.258Z,103139.30
2023-01-20T18:12:30.156Z,103136.08
2023-01-20T18:14:40.038Z,103138.67
2023-01-20T18:16:50.697Z,103138.45
2023-01-20T18:19:01.302Z,103138.23
2023-01-20T18:21:16.443Z,103134.32
2023-01-20T18:23:26.737Z,103136.35
2023-01-20T18:25:36.487Z,103137.54
2023-01-20T18:27:46.324Z,103140.82
2023-01-20T18:29:56.379Z,103145.17
2023-01-20T18:32:06.497Z,103145.48
2023-01-20T18:34:17.948Z,103143.81
2023-01-20T18:36:30.185Z,103141.30
2023-01-20T18:38:43.577Z,103139.30
2023-01-20T18:40:53.903Z,103139.94
2023-01-20T18:43:03.517Z,103144.29
2023-01-20T18:45:15.077Z,103147.55
2023-01-20T18:47:25.488Z,103146.59
2023-01-20T18:49:35.609Z,103144.21
2023-01-20T18:51:45.368Z,103142.90
2023-01-20T18:54:00.569Z,103143.88
2023-01-20T18:56:12.658Z,103142.03
2023-01-20T18:58:23.136Z,103141.77
2023-01-20T19:00:33.575Z,103138.15
2023-01-20T19:02:43.717Z,103136.13
2023-01-20T19:04:53.622Z,103133.38
2023-01-20T19:07:03.467Z,103129.93
2023-01-20T19:09:16.286Z,103129.65
2023-01-20T19:11:28.433Z,103129.92
2023-01-20T19:13:38.818Z,103131.75
2023-01-20T19:15:48.694Z,103127.05
2023-01-20T19:17:58.557Z,103123.44
2023-01-20T19:20:09.855Z,103122.33
2023-01-20T19:22:20.075Z,103118.19
2023-01-20T19:24:31.185Z,103117.66
2023-01-20T19:26:42.087Z,103115.13
2023-01-20T19:28:57.680Z,103115.77
2023-01-20T19:31:12.917Z,103116.21
2023-01-20T19:33:22.591Z,103115.47
2023-01-20T19:35:34.225Z,103111.73
2023-01-20T19:37:44.395Z,103109.77
2023-01-20T19:39:54.604Z,103107.83
2023-01-20T19:42:04.548Z,103100.94
2023-01-20T19:44:16.518Z,103097.21
2023-01-20T19:46:27.404Z,103092.02
2023-01-20T19:48:37.363Z,103087.39
2023-01-20T19:50:47.435Z,103086.23
2023-01-20T19:52:57.458Z,103084.38
2023-01-20T19:55:08.379Z,103079.34
2023-01-20T19:57:18.167Z,103070.77
2023-01-20T19:59:28.026Z,103070.72
2023-01-20T20:01:38.952Z,103073.96
2023-01-20T20:03:49.276Z,103071.59
2023-01-20T20:05:58.977Z,103071.67
2023-01-20T20:08:09.516Z,103066.83
2023-01-20T20:10:20.145Z,103067.79
2023-01-20T20:12:29.777Z,103065.77
2023-01-20T20:14:40.232Z,103064.32
2023-01-20T20:16:50.615Z,103066.25
2023-01-20T20:19:01.952Z,103066.56
2023-01-20T20:21:12.408Z,103058.70
2023-01-20T20:23:23.357Z,103056.38
2023-01-20T20:25:38.126Z,103055.14
2023-01-20T20:27:47.996Z,103056.33
2023-01-20T20:30:01.902Z,103056.95
2023-01-20T20:32:12.365Z,103057.75
2023-01-20T20:34:23.043Z,103058.39
2023-01-20T20:36:34.385Z,103058.16
2023-01-20T20:38:45.477Z,103052.81
2023-01-20T20:41:00.274Z,103056.66
2023-01-20T20:43:10.248Z,103056.11
2023-01-20T20:45:20.851Z,103055.21
2023-01-20T20:47:30.769Z,103060.52
2023-01-20T20:49:40.445Z,103059.27
2023-01-20T20:51:50.437Z,103057.59
2023-01-20T20:54:01.760Z,103056.98
2023-01-20T20:56:16.531Z,103053.52
2023-01-20T20:58:26.756Z,103050.33
2023-01-20T21:00:36.620Z,103047.57
2023-01-20T21:02:47.122Z,103050.05
2023-01-20T21:04:57.826Z,103046.67
2023-01-20T21:07:07.777Z,103046.36
2023-01-20T21:09:17.836Z,103038.09
2023-01-20T21:11:28.356Z,103044.28
2023-01-20T21:13:38.827Z,103039.40
2023-01-20T21:16:00.172Z,103035.39
2023-01-20T21:18:10.205Z,103027.69
2023-01-20T21:20:20.658Z,103023.52
2023-01-20T21:22:30.628Z,103024.46
2023-01-20T21:24:41.077Z,103016.05
2023-01-20T21:26:50.917Z,103011.33
2023-01-20T21:29:02.414Z,103006.59
2023-01-20T21:31:13.731Z,103005.75
2023-01-20T21:33:24.219Z,102999.14
2023-01-20T21:35:34.136Z,102991.14
2023-01-20T21:37:43.839Z,102988.10
2023-01-20T21:39:53.881Z,102990.27
2023-01-20T21:42:06.568Z,102990.15
2023-01-20T21:44:33.526Z,102986.59
2023-01-20T21:46:43.959Z,102986.55
2023-01-20T21:49:11.370Z,102986.14
2023-01-20T21:51:38.898Z,102984.15
2023-01-20T21:53:48.772Z,102979.38
2023-01-20T21:55:58.978Z,102976.98
2023-01-20T21:58:10.836Z,102976.70
2023-01-20T22:00:22.557Z,102972.44
2023-01-20T22:02:32.859Z,102975.58
2023-01-20T22:04:42.788Z,102979.52
2023-01-20T22:06:52.576Z,102979.73
2023-01-20T22:09:02.538Z,102982.09
2023-01-20T22:11:12.318Z,102985.19
2023-01-20T22:13:22.106Z,102982.40
2023-01-20T22:15:32.087Z,102982.77
2023-01-20T22:17:42.180Z,102985.90
2023-01-20T22:19:52.567Z,102982.80
2023-01-20T22:22:04.025Z,102981.14
2023-01-20T22:24:15.095Z,102978.86
2023-01-20T22:26:25.648Z,102979.20
2023-01-20T22:28:40.237Z,102979.82
2023-01-20T22:30:50.518Z,102979.27
2023-01-20T22:33:00.886Z,102977.95
2023-01-20T22:35:12.086Z,102973.16
2023-01-20T22:37:23.957Z,102973.02
2023-01-20T22:39:34.146Z,102973.85
2023-01-20T22:41:44.798Z,102977.36
2023-01-20T22:43:56.235Z,102975.72
2023-01-20T22:46:07.182Z,102975.48
2023-01-20T22:48:17.237Z,102971.47
2023-01-20T22:50:27.330Z,102972.75
2023-01-20T22:52:37.185Z,102971.16
2023-01-20T22:54:46.888Z,102967.98
2023-01-20T22:56:57.427Z,102967.54
2023-01-20T22:59:07.482Z,102967.30
2023-01-20T23:01:18.821Z,102968.46
2023-01-20T23:03:28.926Z,102969.32
2023-01-20T23:05:40.895Z,102965.24
2023-01-20T23:07:50.976Z,102960.20
2023-01-20T23:10:00.985Z,102956.76
2023-01-20T23:12:11.236Z,102954.14
2023-01-20T23:14:41.462Z,102953.17
2023-01-20T23:16:51.592Z,102948.95
2023-01-20T23:19:02.136Z,102945.59
2023-01-20T23:21:12.405Z,102946.33
2023-01-20T23:23:23.089Z,102944.63
2023-01-20T23:25:33.099Z,102945.39
2023-01-20T23:27:43.588Z,102944.89
2023-01-20T23:29:56.245Z,102942.77
2023-01-20T23:32:09.649Z,102942.13
2023-01-20T23:34:19.975Z,102937.38
2023-01-20T23:36:30.143Z,102936.00
2023-01-20T23:38:40.141Z,102935.15
2023-01-20T23:40:51.983Z,102937.70
2023-01-20T23:43:02.265Z,102933.33
2023-01-20T23:45:13.506Z,102933.15
2023-01-20T23:47:23.435Z,102931.39
2023-01-20T23:49:33.665Z,102932.23
2023-01-20T23:51:43.937Z,102935.98
2023-01-20T23:53:54.316Z,102932.69
2023-01-20T23:56:05.982Z,102933.26
2023-01-20T23:58:16.188Z,102926.33
